Boaz, AL

2:08 PM CDT on August 29, 2015 (GMT -0500)
Double Bridges | | Change Station
CLOSE
Current Station
Personal Weather Station
Location: Boaz, AL
Elevation: 1083 ft
Nearby Weather Stations

Elev 1083 ft 34.22 °N, 86.13 °W | Updated 11 minutes ago

Overcast
Overcast
84.6 °F
Feels Like 91 °F
N
3.2
Wind Variable Wind from NE

Today
High -- | Low -- °F
--% Chance of Precip.
Yesterday
High -- | Low -- °F
Precip. -- in
6:15 AM 7:14 PM
Full, 100% visible
Pressure 30.12 in
Visibility 10.0 miles
Clouds Scattered Clouds 2600 ft
Scattered Clouds 3200 ft
Scattered Clouds 4100 ft
Heat Index 91 °F
Dew Point 73 °F
Humidity 69%
Rainfall 0.00 in
Snow Depth Not available.
UV 8 out of 12
Pollen 9.20 out of 12
Air Quality Not available.
Flu Activity Not available.
METAR K8A0 291855Z AUTO 12007KT 10SM SCT026 SCT032 SCT041 28/25 A3012 RMK AO2 LTG DSNT W AND NW
Pressure 30.12 in
Visibility 10.0 miles
Clouds Scattered Clouds 2600 ft
Scattered Clouds 3200 ft
Scattered Clouds 4100 ft
Heat Index 91 °F
Dew Point 73 °F
Humidity 69%
Rainfall 0.00 in
Snow Depth Not available.
UV 8 out of 12
Pollen 9.20 out of 12
Air Quality Not available.
Flu Activity Not available.
METAR K8A0 291855Z AUTO 12007KT 10SM SCT026 SCT032 SCT041 28/25 A3012 RMK AO2 LTG DSNT W AND NW

10-Day Weather Forecast

×

Almanac

Astronomy

Aug. 29, 2015 Rise Set
Actual Time
Civil Twilight
Nautical Twilight
Astronomical Twilight
Moon
Length of Visible Light
Length of Day
Tomorrow will be .
, % of the Moon is Illuminated

Today's Extremes

State Highs State Lows

Community

WunderPhotos

Upload Photos

1,850,777 photos uploaded!

WunderBlogs® & News

Nearby

Air Quality

  Air Quality AQ Index Pollutant
Not available.

Snow Depth

Station Depth Elevation

Earthquake Activity

City Distance Mag. Time & Date
Minimum magnitude displayed is 2.5.

Coastal Water Temperatures

Place Temperature

Stations

Nearby Weather Stations

Station Location Temp. Windchill Dew Point Humidity Wind Precip. Elev Updated Type